createdAt,value
2023-10-23T00:01:54.898Z,98.11
2023-10-23T00:04:22.708Z,97.17
2023-10-23T00:06:50.584Z,97.30
2023-10-23T00:09:18.212Z,95.69
2023-10-23T00:11:45.747Z,99.22
2023-10-23T00:14:14.628Z,96.41
2023-10-23T00:16:42.321Z,96.78
2023-10-23T00:19:09.899Z,97.05
2023-10-23T00:21:37.429Z,96.38
2023-10-23T00:24:05.589Z,96.11
2023-10-23T00:26:33.090Z,95.89
2023-10-23T00:29:01.873Z,95.29
2023-10-23T00:31:30.737Z,96.66
2023-10-23T00:33:58.286Z,97.21
2023-10-23T00:36:26.158Z,96.60
2023-10-23T00:38:53.774Z,95.82
2023-10-23T00:41:21.315Z,95.50
2023-10-23T00:43:48.821Z,97.24
2023-10-23T00:46:20.184Z,95.75
2023-10-23T00:48:49.475Z,96.33
2023-10-23T00:51:18.233Z,96.30
2023-10-23T00:53:46.005Z,95.10
2023-10-23T00:56:13.984Z,95.47
2023-10-23T00:58:43.574Z,96.42
2023-10-23T01:01:13.487Z,96.26
2023-10-23T01:03:41.665Z,96.77
2023-10-23T01:06:11.480Z,96.42
2023-10-23T01:08:39.316Z,96.49
2023-10-23T01:11:07.140Z,97.34
2023-10-23T01:13:34.670Z,97.15
2023-10-23T01:16:02.179Z,96.36
2023-10-23T01:18:29.788Z,98.00
2023-10-23T01:20:57.455Z,98.27
2023-10-23T01:23:29.905Z,98.80
2023-10-23T01:25:58.742Z,98.70
2023-10-23T01:28:26.245Z,98.85
2023-10-23T01:30:53.872Z,98.64
2023-10-23T01:33:21.742Z,99.64
2023-10-23T01:35:49.237Z,100.00
2023-10-23T01:38:17.579Z,99.88
2023-10-23T01:40:45.081Z,99.94
2023-10-23T01:43:14.053Z,99.97
2023-10-23T01:45:41.699Z,100.00
2023-10-23T01:48:09.306Z,100.00
2023-10-23T01:50:39.453Z,97.73
2023-10-23T01:53:08.619Z,97.19
2023-10-23T01:55:36.453Z,96.90
2023-10-23T01:58:04.138Z,97.11
2023-10-23T02:00:33.301Z,96.50
2023-10-23T02:03:01.299Z,96.59
2023-10-23T02:05:28.964Z,96.92
2023-10-23T02:07:56.523Z,95.95
2023-10-23T02:10:24.264Z,95.60
2023-10-23T02:12:51.859Z,96.86
2023-10-23T02:15:19.468Z,97.53
2023-10-23T02:17:48.426Z,98.18
2023-10-23T02:20:16.129Z,98.41
2023-10-23T02:22:43.623Z,98.42
2023-10-23T02:25:11.350Z,98.13
2023-10-23T02:27:38.889Z,98.30
2023-10-23T02:30:08.360Z,98.43
2023-10-23T02:32:35.949Z,98.57
2023-10-23T02:35:05.312Z,99.64
2023-10-23T02:37:33.070Z,99.54
2023-10-23T02:40:00.893Z,98.26
2023-10-23T02:42:28.494Z,99.67
2023-10-23T02:44:56.254Z,98.38
2023-10-23T02:47:23.753Z,99.27
2023-10-23T02:49:51.276Z,100.00
2023-10-23T02:52:20.203Z,100.00
2023-10-23T02:54:47.751Z,100.00
2023-10-23T02:57:15.279Z,99.67
2023-10-23T02:59:47.774Z,100.00
2023-10-23T03:02:15.823Z,100.00
2023-10-23T03:04:43.392Z,99.21
2023-10-23T03:07:10.931Z,99.79
2023-10-23T03:09:39.946Z,98.05
2023-10-23T03:12:07.883Z,98.99
2023-10-23T03:14:35.418Z,99.94
2023-10-23T03:17:02.951Z,100.00
2023-10-23T03:19:30.503Z,100.00
2023-10-23T03:21:58.622Z,100.00
2023-10-23T03:24:26.480Z,100.00
2023-10-23T03:26:55.333Z,100.00
2023-10-23T03:29:22.941Z,100.00
2023-10-23T03:31:50.472Z,100.00
2023-10-23T03:34:18.007Z,100.00
2023-10-23T03:36:46.198Z,100.00
2023-10-23T03:39:13.738Z,100.00
2023-10-23T03:41:41.253Z,100.00
2023-10-23T03:44:10.198Z,100.00
2023-10-23T03:46:37.706Z,100.00
2023-10-23T03:49:05.386Z,100.00
2023-10-23T03:51:32.900Z,100.00
2023-10-23T03:54:01.025Z,100.00
2023-10-23T03:56:28.542Z,100.00
2023-10-23T03:58:56.106Z,100.00
2023-10-23T04:01:24.968Z,98.17
2023-10-23T04:03:52.564Z,98.78
2023-10-23T04:06:20.165Z,96.96
2023-10-23T04:08:47.704Z,97.08
2023-10-23T04:11:15.896Z,96.65
2023-10-23T04:13:43.509Z,97.55
2023-10-23T04:16:11.467Z,97.28
2023-10-23T04:18:40.577Z,96.82
2023-10-23T04:21:09.302Z,95.00
2023-10-23T04:23:38.012Z,96.74
2023-10-23T04:26:05.856Z,97.04
2023-10-23T04:28:34.118Z,96.70
2023-10-23T04:31:01.752Z,97.72
2023-10-23T04:33:29.463Z,96.55
2023-10-23T04:35:59.378Z,97.06
2023-10-23T04:38:27.398Z,97.87
2023-10-23T04:40:55.271Z,97.07
2023-10-23T04:43:23.445Z,95.08
2023-10-23T04:45:54.067Z,94.62
2023-10-23T04:48:22.143Z,93.31
2023-10-23T04:50:49.893Z,95.02
2023-10-23T04:53:20.549Z,94.66
2023-10-23T04:55:48.141Z,92.68
2023-10-23T04:58:15.825Z,91.49
2023-10-23T05:00:45.445Z,93.77
2023-10-23T05:03:13.128Z,94.06
2023-10-23T05:05:47.554Z,93.90
2023-10-23T05:08:15.135Z,94.60
2023-10-23T05:10:44.196Z,95.00
2023-10-23T05:13:11.718Z,94.35
2023-10-23T05:15:39.245Z,94.62
2023-10-23T05:18:06.937Z,95.65
2023-10-23T05:20:35.772Z,96.50
2023-10-23T05:23:04.197Z,97.57
2023-10-23T05:25:31.757Z,97.59
2023-10-23T05:28:00.767Z,98.05
2023-10-23T05:30:28.741Z,96.85
2023-10-23T05:32:56.330Z,96.08
2023-10-23T05:35:23.886Z,95.58
2023-10-23T05:37:51.413Z,93.85
2023-10-23T05:40:18.935Z,93.95
2023-10-23T05:42:46.465Z,93.70
2023-10-23T05:45:15.513Z,94.06
2023-10-23T05:47:43.060Z,93.65
2023-10-23T05:50:11.177Z,94.97
2023-10-23T05:52:38.673Z,95.37
2023-10-23T05:55:09.402Z,96.31
2023-10-23T05:57:37.046Z,98.28
2023-10-23T06:00:05.618Z,98.26
2023-10-23T06:02:34.448Z,98.30
2023-10-23T06:05:02.065Z,99.26
2023-10-23T06:07:31.148Z,98.20
2023-10-23T06:10:00.586Z,99.21
2023-10-23T06:12:28.222Z,99.23
2023-10-23T06:14:55.868Z,100.00
2023-10-23T06:17:23.505Z,100.00
2023-10-23T06:19:52.405Z,100.00
2023-10-23T06:22:19.954Z,99.94
2023-10-23T06:24:47.558Z,100.00
2023-10-23T06:27:15.120Z,100.00
2023-10-23T06:29:42.622Z,100.00
2023-10-23T06:32:10.152Z,99.98
2023-10-23T06:34:37.661Z,100.00
2023-10-23T06:37:06.600Z,100.00
2023-10-23T06:39:34.620Z,99.97
2023-10-23T06:42:02.184Z,99.10
2023-10-23T06:44:30.203Z,96.14
2023-10-23T06:46:57.707Z,96.16
2023-10-23T06:49:25.831Z,94.60
2023-10-23T06:51:53.837Z,92.22
2023-10-23T06:54:23.750Z,91.99
2023-10-23T06:56:51.512Z,91.62
2023-10-23T06:59:19.251Z,90.21
2023-10-23T07:01:46.757Z,89.31
2023-10-23T07:04:14.516Z,88.69
2023-10-23T07:06:42.184Z,87.89
2023-10-23T07:09:09.801Z,87.56
2023-10-23T07:11:38.748Z,85.12
2023-10-23T07:14:06.359Z,83.49
2023-10-23T07:16:33.930Z,82.70
2023-10-23T07:19:04.747Z,80.73
2023-10-23T07:21:32.336Z,80.09
2023-10-23T07:24:00.121Z,78.84
2023-10-23T07:26:27.712Z,78.08
2023-10-23T07:28:56.585Z,76.45
2023-10-23T07:31:24.107Z,75.35
2023-10-23T07:33:51.762Z,75.07
2023-10-23T07:36:19.510Z,76.43
2023-10-23T07:38:47.837Z,75.36
2023-10-23T07:41:15.563Z,73.58
2023-10-23T07:43:44.130Z,71.76
2023-10-23T07:46:17.533Z,71.21
2023-10-23T07:48:46.790Z,71.89
2023-10-23T07:51:14.969Z,70.01
2023-10-23T07:53:42.808Z,67.63
2023-10-23T07:56:10.372Z,69.57
2023-10-23T07:58:38.015Z,67.72
2023-10-23T08:01:07.174Z,69.11
2023-10-23T08:03:36.870Z,69.82
2023-10-23T08:06:05.578Z,69.68
2023-10-23T08:08:35.138Z,70.50
2023-10-23T08:11:04.243Z,69.52
2023-10-23T08:13:31.970Z,66.79
2023-10-23T08:16:01.407Z,68.46
2023-10-23T08:21:01.074Z,65.71
2023-10-23T08:23:28.599Z,66.14
2023-10-23T08:25:56.777Z,64.21
2023-10-23T08:28:24.387Z,63.56
2023-10-23T08:30:51.940Z,66.11
2023-10-23T08:33:19.609Z,65.45
2023-10-23T08:35:47.191Z,67.57
2023-10-23T08:38:16.042Z,68.37
2023-10-23T08:40:44.055Z,64.70
2023-10-23T08:43:11.818Z,61.66
2023-10-23T08:45:40.815Z,66.16
2023-10-23T08:48:08.364Z,66.91
2023-10-23T08:50:37.259Z,66.96
2023-10-23T08:53:09.338Z,64.25
2023-10-23T08:55:38.830Z,65.76
2023-10-23T08:58:07.375Z,65.80
2023-10-23T09:00:35.521Z,64.63
2023-10-23T09:03:06.852Z,65.71
2023-10-23T09:05:34.524Z,64.92
2023-10-23T09:08:02.985Z,67.08
2023-10-23T09:10:30.513Z,64.64
2023-10-23T09:12:59.411Z,61.66
2023-10-23T09:15:26.944Z,63.98
2023-10-23T09:17:54.776Z,63.78
2023-10-23T09:20:27.604Z,65.25
2023-10-23T09:22:57.781Z,61.88
2023-10-23T09:25:26.223Z,62.74
2023-10-23T09:27:54.265Z,63.29
2023-10-23T09:30:23.550Z,64.80
2023-10-23T09:32:54.383Z,62.50
2023-10-23T09:35:24.018Z,61.99
2023-10-23T09:37:51.627Z,59.04
2023-10-23T09:40:19.856Z,57.86
2023-10-23T09:42:47.543Z,57.25
2023-10-23T09:45:16.346Z,57.17
2023-10-23T09:47:47.651Z,58.82
2023-10-23T09:50:15.816Z,59.95
2023-10-23T09:52:45.887Z,59.24
2023-10-23T09:55:14.830Z,58.15
2023-10-23T09:57:47.337Z,60.41
2023-10-23T10:00:15.773Z,60.63
2023-10-23T10:02:50.045Z,61.69
2023-10-23T10:05:20.012Z,61.06
2023-10-23T10:07:53.516Z,59.73
2023-10-23T10:10:23.853Z,59.47
2023-10-23T10:12:52.006Z,59.99
2023-10-23T10:15:20.896Z,61.49
2023-10-23T10:17:51.441Z,60.51
2023-10-23T10:20:21.615Z,62.31
2023-10-23T10:22:58.523Z,60.80
2023-10-23T10:25:28.686Z,59.80
2023-10-23T10:28:00.230Z,56.47
2023-10-23T10:30:43.433Z,56.73
2023-10-23T10:34:22.767Z,54.79
2023-10-23T10:36:07.474Z,53.86
2023-10-23T10:38:36.951Z,57.98
2023-10-23T10:41:05.715Z,57.19
2023-10-23T10:43:34.668Z,56.34
2023-10-23T10:46:05.856Z,57.45
2023-10-23T10:48:44.858Z,58.97
2023-10-23T10:51:15.559Z,58.14
2023-10-23T10:53:43.379Z,55.81
2023-10-23T10:56:11.162Z,56.50
2023-10-23T10:58:39.789Z,54.95
2023-10-23T11:01:09.158Z,54.56
2023-10-23T11:03:37.907Z,56.88
2023-10-23T11:06:08.126Z,60.26
2023-10-23T11:08:36.104Z,58.29
2023-10-23T11:11:05.755Z,59.54
2023-10-23T11:13:33.497Z,60.38
2023-10-23T11:16:02.175Z,60.06
2023-10-23T11:18:30.267Z,63.70
2023-10-23T11:20:58.587Z,63.84
2023-10-23T11:23:27.736Z,62.57
2023-10-23T11:25:56.777Z,59.92
2023-10-23T11:28:25.162Z,61.97
2023-10-23T11:30:56.836Z,64.08
2023-10-23T11:33:24.638Z,64.00
2023-10-23T11:35:54.167Z,63.53
2023-10-23T11:38:24.063Z,61.99
2023-10-23T11:40:54.343Z,64.32
2023-10-23T11:43:22.300Z,62.92
2023-10-23T11:45:50.245Z,61.74
2023-10-23T11:48:17.871Z,61.25
2023-10-23T11:50:46.510Z,60.60
2023-10-23T11:53:17.375Z,61.17
2023-10-23T11:55:47.566Z,60.93
2023-10-23T11:58:16.435Z,61.58
2023-10-23T12:00:44.034Z,59.67
2023-10-23T12:03:11.816Z,58.96
2023-10-23T12:05:39.445Z,59.28
2023-10-23T12:08:06.980Z,58.56
2023-10-23T12:10:39.068Z,58.43
2023-10-23T12:13:07.137Z,58.11
2023-10-23T12:15:36.025Z,56.60
2023-10-23T12:18:05.445Z,58.53
2023-10-23T12:20:33.858Z,60.16
2023-10-23T12:23:01.415Z,60.88
2023-10-23T12:25:29.015Z,59.58
2023-10-23T12:27:56.681Z,60.27
2023-10-23T12:30:28.979Z,60.13
2023-10-23T12:33:16.316Z,58.80
2023-10-23T12:35:46.040Z,56.42
2023-10-23T12:38:13.779Z,56.28
2023-10-23T12:40:42.620Z,57.26
2023-10-23T12:43:10.564Z,58.11
2023-10-23T12:45:38.116Z,57.79
2023-10-23T12:48:07.318Z,59.75
2023-10-23T12:50:34.931Z,57.67
2023-10-23T12:53:02.759Z,55.62
2023-10-23T12:55:30.296Z,54.41
2023-10-23T12:57:57.912Z,53.80
2023-10-23T13:00:26.356Z,53.04
2023-10-23T13:02:53.974Z,53.77
2023-10-23T13:05:22.952Z,56.87
2023-10-23T13:07:50.612Z,54.89
2023-10-23T13:10:18.272Z,53.88
2023-10-23T13:12:45.794Z,53.95
2023-10-23T13:15:13.393Z,54.19
2023-10-23T13:17:41.034Z,54.06
2023-10-23T13:21:27.801Z,53.81
2023-10-23T13:23:00.240Z,53.55
2023-10-23T13:25:27.851Z,54.50
2023-10-23T13:27:56.896Z,55.05
2023-10-23T13:30:24.561Z,54.50
2023-10-23T13:32:52.811Z,55.61
2023-10-23T13:35:20.985Z,55.48
2023-10-23T13:37:48.508Z,55.98
2023-10-23T13:40:17.453Z,55.60
2023-10-23T13:42:45.531Z,55.09
2023-10-23T13:45:15.167Z,55.18
2023-10-23T13:47:44.946Z,54.81
2023-10-23T13:50:12.738Z,54.86
2023-10-23T13:52:42.070Z,55.62
2023-10-23T13:55:11.537Z,56.14
2023-10-23T13:57:40.695Z,57.14
2023-10-23T14:00:11.063Z,56.83
2023-10-23T14:02:38.941Z,57.86
2023-10-23T14:05:07.689Z,57.57
2023-10-23T14:07:35.284Z,57.20
2023-10-23T14:10:03.562Z,58.21
2023-10-23T14:12:31.148Z,58.17
2023-10-23T14:14:59.986Z,58.49
2023-10-23T14:17:27.499Z,59.60
2023-10-23T14:19:55.036Z,59.96
2023-10-23T14:22:22.713Z,60.19
2023-10-23T14:24:50.442Z,60.65
2023-10-23T14:27:18.114Z,62.80
2023-10-23T14:29:45.743Z,62.07
2023-10-23T14:32:15.100Z,61.84
2023-10-23T14:34:42.651Z,61.94
2023-10-23T14:37:10.261Z,62.03
2023-10-23T14:39:38.005Z,62.34
2023-10-23T14:42:06.461Z,63.71
2023-10-23T14:44:35.899Z,62.71
2023-10-23T14:47:03.578Z,62.33
2023-10-23T14:49:32.853Z,62.77
2023-10-23T14:52:00.502Z,63.88
2023-10-23T14:54:28.062Z,63.67
2023-10-23T14:56:55.585Z,63.84
2023-10-23T14:59:23.651Z,64.79
2023-10-23T15:01:51.804Z,63.78
2023-10-23T15:04:19.510Z,65.17
2023-10-23T15:06:48.368Z,64.63
2023-10-23T15:09:15.967Z,65.48
2023-10-23T15:11:43.605Z,65.56
2023-10-23T15:14:11.305Z,66.22
2023-10-23T15:16:39.770Z,66.35
2023-10-23T15:19:07.343Z,66.92
2023-10-23T15:21:34.898Z,67.37
2023-10-23T15:24:03.943Z,66.35
2023-10-23T15:26:31.452Z,67.89
2023-10-23T15:28:58.915Z,67.96
2023-10-23T15:31:27.145Z,69.34
2023-10-23T15:33:54.886Z,69.23
2023-10-23T15:36:22.459Z,68.55
2023-10-23T15:38:51.767Z,68.51
2023-10-23T15:41:20.718Z,69.42
2023-10-23T15:43:52.387Z,69.88
2023-10-23T15:46:20.353Z,71.19
2023-10-23T15:48:47.922Z,71.88
2023-10-23T15:51:17.741Z,72.42
2023-10-23T15:53:45.220Z,72.31
2023-10-23T15:56:12.768Z,73.19
2023-10-23T15:58:41.957Z,73.20
2023-10-23T16:01:10.218Z,74.18
2023-10-23T16:03:38.039Z,74.84
2023-10-23T16:06:09.206Z,75.25
2023-10-23T16:08:37.773Z,75.98
2023-10-23T16:11:05.952Z,76.91
2023-10-23T16:13:37.981Z,77.14
2023-10-23T16:16:14.361Z,77.13
2023-10-23T16:18:44.800Z,78.08
2023-10-23T16:21:14.741Z,78.95
2023-10-23T16:23:42.426Z,78.93
2023-10-23T16:26:09.962Z,78.91
2023-10-23T16:28:37.586Z,79.91
2023-10-23T16:31:05.298Z,78.92
2023-10-23T16:33:34.184Z,79.73
2023-10-23T16:36:01.782Z,81.30
2023-10-23T16:38:29.490Z,80.77
2023-10-23T16:40:57.077Z,81.22
2023-10-23T16:43:25.077Z,81.65
2023-10-23T16:45:52.648Z,81.06
2023-10-23T16:48:20.220Z,79.29
2023-10-23T16:50:49.059Z,80.92
2023-10-23T16:53:18.313Z,79.20
2023-10-23T16:55:52.538Z,79.77
2023-10-23T16:58:24.244Z,79.26
2023-10-23T17:00:52.130Z,79.24
2023-10-23T17:03:19.820Z,79.66
2023-10-23T17:05:48.708Z,79.67
2023-10-23T17:08:16.197Z,78.30
2023-10-23T17:10:43.663Z,78.24
2023-10-23T17:13:11.824Z,79.97
2023-10-23T17:15:43.341Z,79.80
2023-10-23T17:18:10.965Z,79.31
2023-10-23T17:20:42.512Z,79.19
2023-10-23T17:23:11.359Z,79.38
2023-10-23T17:25:41.384Z,77.54
2023-10-23T17:28:09.691Z,76.39
2023-10-23T17:30:38.277Z,76.54
2023-10-23T17:33:07.363Z,76.44
2023-10-23T17:35:35.252Z,76.25
2023-10-23T17:38:03.325Z,75.77
2023-10-23T17:40:37.015Z,77.25
2023-10-23T17:43:04.714Z,76.99
2023-10-23T17:45:33.994Z,77.97
2023-10-23T17:48:03.177Z,77.68
2023-10-23T17:50:33.449Z,78.62
2023-10-23T17:53:01.348Z,78.11
2023-10-23T17:55:29.148Z,78.50
2023-10-23T17:57:58.338Z,78.38
2023-10-23T18:00:26.639Z,78.71
2023-10-23T18:02:54.444Z,79.60
2023-10-23T18:05:22.349Z,80.06
2023-10-23T18:07:53.615Z,80.14
2023-10-23T18:10:21.791Z,79.51
2023-10-23T18:12:49.909Z,80.67
2023-10-23T18:15:19.639Z,80.96
2023-10-23T18:17:48.764Z,82.42
2023-10-23T18:20:16.657Z,83.59
2023-10-23T18:22:44.422Z,83.43
2023-10-23T18:25:12.288Z,82.83
2023-10-23T18:27:40.717Z,83.75
2023-10-23T18:30:09.303Z,83.62
2023-10-23T18:32:38.160Z,85.27
2023-10-23T18:35:08.558Z,84.06
2023-10-23T18:37:36.418Z,84.05
2023-10-23T18:40:05.418Z,84.73
2023-10-23T18:42:35.289Z,85.54
2023-10-23T18:45:05.154Z,85.23
2023-10-23T18:47:33.356Z,84.45
2023-10-23T18:50:04.757Z,85.43
2023-10-23T18:52:32.725Z,85.31
2023-10-23T18:55:00.704Z,84.89
2023-10-23T18:57:28.348Z,85.21
2023-10-23T18:59:56.703Z,85.12
2023-10-23T19:02:24.269Z,84.86
2023-10-23T19:04:51.838Z,85.60
2023-10-23T19:07:21.509Z,87.04
2023-10-23T19:09:49.037Z,88.64
2023-10-23T19:12:17.199Z,90.85
2023-10-23T19:14:44.717Z,91.36
2023-10-23T19:17:18.903Z,93.15
2023-10-23T19:19:52.653Z,92.21
2023-10-23T19:22:21.547Z,91.60
2023-10-23T19:24:49.655Z,91.19
2023-10-23T19:27:17.702Z,92.40
2023-10-23T19:29:45.209Z,92.30
2023-10-23T19:32:13.939Z,93.71
2023-10-23T19:34:42.680Z,95.92
2023-10-23T19:37:10.774Z,94.32
2023-10-23T19:39:40.551Z,94.01
2023-10-23T19:42:12.463Z,94.02
2023-10-23T19:44:40.421Z,94.00
2023-10-23T19:47:08.966Z,93.36
2023-10-23T19:49:37.187Z,94.33
2023-10-23T19:52:10.768Z,94.74
2023-10-23T19:54:49.662Z,96.63
2023-10-23T19:57:19.067Z,97.30
2023-10-23T19:59:46.659Z,97.68
2023-10-23T20:02:14.241Z,98.24
2023-10-23T20:04:41.927Z,97.82
2023-10-23T20:07:09.484Z,96.71
2023-10-23T20:09:37.789Z,96.46
2023-10-23T20:12:07.207Z,95.13
2023-10-23T20:14:34.821Z,93.96
2023-10-23T20:17:02.407Z,94.65
2023-10-23T20:19:30.764Z,95.07
2023-10-23T20:21:59.418Z,95.61
2023-10-23T20:24:27.084Z,95.07
2023-10-23T20:26:54.602Z,95.58
2023-10-23T20:29:23.649Z,94.91
2023-10-23T20:31:51.801Z,94.78
2023-10-23T20:34:19.352Z,94.66
2023-10-23T20:36:47.264Z,95.00
2023-10-23T20:39:15.134Z,97.65
2023-10-23T20:41:42.646Z,98.37
2023-10-23T20:44:10.114Z,99.67
2023-10-23T20:46:38.988Z,99.91
2023-10-23T20:49:06.939Z,99.42
2023-10-23T20:51:34.472Z,98.73
2023-10-23T20:54:01.989Z,100.00
2023-10-23T20:56:29.695Z,98.73
2023-10-23T20:58:57.231Z,97.90
2023-10-23T21:01:24.875Z,95.94
2023-10-23T21:03:53.813Z,96.04
2023-10-23T21:06:22.660Z,96.07
2023-10-23T21:08:50.117Z,95.31
2023-10-23T21:11:17.620Z,95.14
2023-10-23T21:13:47.418Z,94.35
2023-10-23T21:16:15.153Z,94.50
2023-10-23T21:18:42.724Z,94.37
2023-10-23T21:21:11.564Z,93.63
2023-10-23T21:23:39.079Z,92.90
2023-10-23T21:26:07.492Z,92.45
2023-10-23T21:28:35.171Z,92.01
2023-10-23T21:31:02.840Z,91.43
2023-10-23T21:33:30.600Z,93.12
2023-10-23T21:35:58.684Z,92.43
2023-10-23T21:38:27.882Z,92.86
2023-10-23T21:40:55.697Z,92.34
2023-10-23T21:43:23.288Z,93.17
2023-10-23T21:46:01.888Z,94.08
2023-10-23T21:48:39.169Z,94.63
2023-10-23T21:51:07.271Z,93.67
2023-10-23T21:53:37.042Z,93.35
2023-10-23T21:56:05.324Z,94.45
2023-10-23T21:59:02.499Z,95.32
2023-10-23T22:01:23.031Z,95.64
2023-10-23T22:03:51.262Z,97.82
2023-10-23T22:06:19.297Z,95.95
2023-10-23T22:08:48.893Z,96.69
2023-10-23T22:11:17.198Z,96.99
2023-10-23T22:13:45.173Z,95.73
2023-10-23T22:16:12.861Z,98.04
2023-10-23T22:18:40.660Z,96.07
2023-10-23T22:21:08.161Z,95.63
2023-10-23T22:23:35.685Z,95.02
2023-10-23T22:26:04.545Z,94.58
2023-10-23T22:28:32.153Z,94.17
2023-10-23T22:30:59.724Z,93.85
2023-10-23T22:33:27.689Z,92.33
2023-10-23T22:35:55.308Z,91.04
2023-10-23T22:38:22.808Z,90.72
2023-10-23T22:40:52.172Z,90.50
2023-10-23T22:43:21.043Z,91.03
2023-10-23T22:46:01.630Z,89.25
2023-10-23T22:48:30.348Z,89.92
2023-10-23T22:50:58.320Z,89.98
2023-10-23T22:53:26.294Z,89.72
2023-10-23T22:55:56.569Z,90.61
2023-10-23T22:58:30.999Z,88.98
2023-10-23T23:00:59.254Z,88.77
2023-10-23T23:03:27.556Z,89.84
2023-10-23T23:05:59.305Z,90.31
2023-10-23T23:08:30.769Z,91.46
2023-10-23T23:10:58.876Z,90.53
2023-10-23T23:13:28.355Z,91.30
2023-10-23T23:16:02.512Z,91.78
2023-10-23T23:18:31.419Z,92.77
2023-10-23T23:21:04.255Z,93.93
2023-10-23T23:23:31.786Z,91.46
2023-10-23T23:25:59.258Z,91.26
2023-10-23T23:28:28.149Z,91.63
2023-10-23T23:30:55.709Z,92.67
2023-10-23T23:33:23.236Z,91.19
2023-10-23T23:35:53.641Z,96.17
2023-10-23T23:38:21.133Z,94.56
2023-10-23T23:40:48.667Z,94.09
2023-10-23T23:43:16.491Z,93.93
2023-10-23T23:45:45.738Z,93.63
2023-10-23T23:48:13.254Z,96.45
2023-10-23T23:50:41.147Z,94.83
2023-10-23T23:53:08.640Z,96.72
2023-10-23T23:55:36.157Z,97.14
2023-10-23T23:58:03.654Z,97.85
